createdAt,value
2019-05-02T00:00:37.752Z,59.34
2019-05-02T00:03:07.351Z,59.86
2019-05-02T00:05:37.598Z,59.86
2019-05-02T00:08:07.941Z,59.86
2019-05-02T00:10:38.288Z,59.52
2019-05-02T00:13:08.433Z,59.35
2019-05-02T00:15:39.185Z,59.39
2019-05-02T00:18:09.022Z,59.42
2019-05-02T00:20:38.632Z,59.50
2019-05-02T00:23:08.774Z,59.69
2019-05-02T00:25:38.450Z,59.69
2019-05-02T00:28:12.494Z,59.64
2019-05-02T00:30:39.468Z,59.32
2019-05-02T00:33:10.540Z,59.10
2019-05-02T00:35:40.817Z,59.23
2019-05-02T00:38:11.675Z,59.29
2019-05-02T00:40:41.286Z,59.31
2019-05-02T00:43:10.895Z,59.44
2019-05-02T00:45:40.502Z,59.58
2019-05-02T00:48:11.753Z,59.76
2019-05-02T00:50:45.453Z,60.02
2019-05-02T00:53:13.527Z,60.33
2019-05-02T00:55:43.251Z,60.56
2019-05-02T00:58:12.856Z,60.67
2019-05-02T01:00:59.967Z,60.84
2019-05-02T01:03:32.035Z,61.12
2019-05-02T01:06:01.808Z,61.33
2019-05-02T01:08:35.600Z,61.74
2019-05-02T01:11:02.764Z,61.65
2019-05-02T01:13:32.372Z,61.95
2019-05-02T01:16:02.045Z,62.01
2019-05-02T01:18:31.654Z,62.18
2019-05-02T01:21:02.757Z,62.29
2019-05-02T01:23:32.609Z,62.29
2019-05-02T01:26:04.970Z,62.31
2019-05-02T01:28:54.225Z,62.40
2019-05-02T01:31:34.448Z,62.62
2019-05-02T01:34:03.882Z,62.72
2019-05-02T01:36:41.048Z,62.84
2019-05-02T01:39:11.020Z,63.05
2019-05-02T01:41:40.657Z,63.23
2019-05-02T01:44:10.353Z,63.30
2019-05-02T01:46:39.977Z,63.34
2019-05-02T01:49:09.596Z,63.54
2019-05-02T01:51:42.103Z,63.99
2019-05-02T01:54:11.463Z,64.20
2019-05-02T01:56:41.126Z,64.30
2019-05-02T01:59:10.762Z,64.46
2019-05-02T02:01:40.371Z,64.76
2019-05-02T02:04:09.974Z,64.90
2019-05-02T02:06:43.349Z,64.96
2019-05-02T02:09:11.180Z,65.29
2019-05-02T02:11:40.790Z,65.31
2019-05-02T02:14:12.899Z,65.34
2019-05-02T02:16:41.727Z,65.49
2019-05-02T02:19:27.764Z,65.31
2019-05-02T02:22:09.244Z,65.41
2019-05-02T02:24:49.294Z,65.43
2019-05-02T02:27:19.902Z,65.54
2019-05-02T02:29:50.258Z,65.64
2019-05-02T02:32:26.380Z,65.53
2019-05-02T02:34:51.184Z,65.48
2019-05-02T02:37:20.807Z,65.80
2019-05-02T02:39:54.153Z,66.03
2019-05-02T02:42:25.101Z,66.12
2019-05-02T02:44:54.705Z,65.99
2019-05-02T02:47:24.319Z,65.86
2019-05-02T02:49:55.854Z,65.86
2019-05-02T02:52:25.264Z,65.75
2019-05-02T02:54:54.880Z,65.80
2019-05-02T02:57:28.157Z,66.12
2019-05-02T03:00:06.519Z,65.97
2019-05-02T03:02:27.179Z,66.08
2019-05-02T03:04:56.770Z,66.06
2019-05-02T03:07:28.906Z,66.39
2019-05-02T03:09:59.528Z,66.73
2019-05-02T03:12:28.921Z,66.95
2019-05-02T03:15:02.848Z,67.13
2019-05-02T03:17:32.455Z,67.50
2019-05-02T03:20:03.927Z,67.82
2019-05-02T03:22:34.799Z,67.87
2019-05-02T03:25:06.451Z,67.89
2019-05-02T03:27:39.689Z,68.15
2019-05-02T03:30:08.637Z,68.42
2019-05-02T03:32:38.226Z,68.43
2019-05-02T03:35:07.924Z,68.55
2019-05-02T03:37:37.690Z,68.56
2019-05-02T03:40:07.574Z,68.49
2019-05-02T03:42:44.566Z,68.65
2019-05-02T03:45:08.674Z,68.95
2019-05-02T03:47:43.861Z,69.15
2019-05-02T03:50:10.163Z,69.20
2019-05-02T03:52:43.818Z,69.05
2019-05-02T03:55:11.440Z,68.63
2019-05-02T03:57:42.234Z,68.92
2019-05-02T04:00:20.813Z,68.61
2019-05-02T04:02:45.058Z,68.71
2019-05-02T04:05:14.846Z,68.70
2019-05-02T04:07:44.836Z,68.68
2019-05-02T04:10:21.357Z,68.54
2019-05-02T04:12:52.990Z,68.45
2019-05-02T04:15:28.688Z,68.29
2019-05-02T04:17:55.404Z,68.22
2019-05-02T04:20:25.075Z,67.89
2019-05-02T04:22:55.416Z,67.95
2019-05-02T04:25:28.131Z,67.91
2019-05-02T04:27:58.056Z,67.69
2019-05-02T04:30:27.836Z,67.35
2019-05-02T04:32:57.844Z,67.15
2019-05-02T04:35:28.823Z,67.04
2019-05-02T04:38:01.717Z,66.81
2019-05-02T04:40:35.044Z,66.66
2019-05-02T04:43:07.324Z,66.51
2019-05-02T04:45:50.829Z,66.44
2019-05-02T04:48:04.278Z,66.34
2019-05-02T04:50:33.865Z,66.10
2019-05-02T04:53:03.464Z,65.94
2019-05-02T04:55:33.695Z,65.76
2019-05-02T04:58:03.446Z,65.50
2019-05-02T05:00:33.050Z,65.23
2019-05-02T05:03:09.436Z,64.98
2019-05-02T05:05:34.233Z,64.84
2019-05-02T05:08:03.828Z,64.68
2019-05-02T05:10:40.161Z,64.31
2019-05-02T05:13:04.788Z,64.27
2019-05-02T05:15:41.113Z,64.20
2019-05-02T05:18:10.404Z,63.81
2019-05-02T05:20:38.548Z,63.43
2019-05-02T05:23:08.413Z,63.13
2019-05-02T05:25:39.677Z,62.92
2019-05-02T05:28:09.342Z,62.82
2019-05-02T05:30:45.316Z,62.43
2019-05-02T05:33:10.487Z,62.48
2019-05-02T05:35:43.355Z,62.46
2019-05-02T05:38:11.431Z,62.00
2019-05-02T05:40:41.042Z,61.92
2019-05-02T05:43:15.434Z,61.56
2019-05-02T05:45:53.422Z,60.77
2019-05-02T05:48:13.880Z,60.59
2019-05-02T05:50:43.678Z,60.83
2019-05-02T05:53:17.369Z,60.75
2019-05-02T05:55:44.596Z,60.36
2019-05-02T05:58:15.849Z,60.30
2019-05-02T06:00:45.902Z,59.88
2019-05-02T06:03:17.908Z,59.76
2019-05-02T06:05:47.825Z,59.49
2019-05-02T06:08:18.391Z,58.80
2019-05-02T06:10:48.806Z,58.31
2019-05-02T06:13:18.403Z,57.04
2019-05-02T06:16:01.283Z,56.52
2019-05-02T06:18:19.352Z,55.75
2019-05-02T06:20:48.982Z,54.64
2019-05-02T06:23:18.612Z,53.62
2019-05-02T06:25:48.248Z,52.93
2019-05-02T06:28:17.853Z,52.91
2019-05-02T06:30:47.463Z,52.36
2019-05-02T06:33:17.069Z,51.68
2019-05-02T06:35:46.673Z,51.08
2019-05-02T06:38:16.265Z,50.78
2019-05-02T06:40:46.673Z,50.53
2019-05-02T06:43:16.354Z,50.23
2019-05-02T06:45:45.971Z,50.05
2019-05-02T06:48:17.692Z,50.12
2019-05-02T06:50:46.924Z,50.08
2019-05-02T06:53:16.542Z,50.23
2019-05-02T06:55:46.141Z,49.79
2019-05-02T06:58:15.742Z,49.19
2019-05-02T07:00:56.488Z,49.12
2019-05-02T07:03:17.378Z,49.18
2019-05-02T07:05:49.019Z,48.62
2019-05-02T07:08:18.366Z,47.97
2019-05-02T07:10:47.988Z,47.59
2019-05-02T07:13:17.582Z,47.37
2019-05-02T07:16:10.507Z,46.95
2019-05-02T07:18:47.408Z,46.21
2019-05-02T07:21:17.822Z,46.00
2019-05-02T07:23:48.580Z,46.40
2019-05-02T07:26:21.059Z,45.44
2019-05-02T07:28:50.886Z,45.70
2019-05-02T07:31:20.505Z,45.26
2019-05-02T07:33:50.110Z,44.62
2019-05-02T07:36:19.717Z,44.04
2019-05-02T07:38:49.320Z,44.55
2019-05-02T07:41:18.929Z,44.02
2019-05-02T07:43:52.070Z,44.50
2019-05-02T07:46:20.989Z,44.45
2019-05-02T07:48:54.687Z,43.95
2019-05-02T07:51:22.704Z,42.84
2019-05-02T07:53:55.418Z,42.93
2019-05-02T07:56:23.763Z,43.14
2019-05-02T07:58:54.605Z,43.03
2019-05-02T08:01:24.206Z,42.89
2019-05-02T08:03:53.805Z,42.96
2019-05-02T08:06:34.654Z,42.41
2019-05-02T08:08:54.709Z,41.96
2019-05-02T08:11:24.315Z,41.07
2019-05-02T08:13:55.647Z,39.35
2019-05-02T08:16:27.436Z,38.98
2019-05-02T08:18:56.638Z,39.04
2019-05-02T08:21:27.304Z,38.89
2019-05-02T08:24:02.155Z,38.41
2019-05-02T08:26:30.528Z,38.93
2019-05-02T08:29:01.780Z,39.16
2019-05-02T08:31:31.386Z,39.10
2019-05-02T08:34:05.230Z,39.21
2019-05-02T08:36:32.317Z,38.71
2019-05-02T08:39:01.938Z,38.55
2019-05-02T08:41:31.540Z,38.61
2019-05-02T08:44:01.155Z,38.68
2019-05-02T08:46:30.747Z,38.77
2019-05-02T08:49:00.386Z,38.10
2019-05-02T08:51:29.986Z,36.63
2019-05-02T08:53:59.608Z,34.14
2019-05-02T08:56:29.212Z,32.93
2019-05-02T08:58:58.837Z,30.35
2019-05-02T09:01:34.813Z,29.16
2019-05-02T09:03:59.792Z,27.72
2019-05-02T09:06:29.388Z,26.84
2019-05-02T09:08:59.009Z,25.65
2019-05-02T09:11:28.613Z,25.87
2019-05-02T09:13:58.240Z,26.80
2019-05-02T09:16:29.019Z,28.50
2019-05-02T09:18:59.195Z,28.29
2019-05-02T09:21:34.347Z,26.98
2019-05-02T09:24:02.467Z,25.99
2019-05-02T09:26:36.168Z,24.32
2019-05-02T09:29:05.419Z,23.81
2019-05-02T09:31:36.745Z,23.79
2019-05-02T09:34:06.063Z,22.55
2019-05-02T09:36:38.114Z,20.72
2019-05-02T09:39:08.338Z,19.71
2019-05-02T09:41:37.944Z,19.10
2019-05-02T09:44:08.958Z,19.06
2019-05-02T09:46:38.906Z,19.30
2019-05-02T09:49:13.399Z,20.70
2019-05-02T09:51:41.911Z,20.78
2019-05-02T09:54:11.984Z,20.94
2019-05-02T09:56:43.078Z,19.52
2019-05-02T09:59:26.647Z,18.03
2019-05-02T10:01:44.246Z,17.47
2019-05-02T10:04:13.861Z,16.87
2019-05-02T10:06:43.640Z,16.34
2019-05-02T10:09:13.260Z,16.75
2019-05-02T10:11:42.881Z,16.25
2019-05-02T10:14:13.528Z,15.82
2019-05-02T10:16:43.125Z,14.93
2019-05-02T10:19:13.563Z,14.64
2019-05-02T10:21:47.113Z,13.72
2019-05-02T10:24:14.800Z,12.83
2019-05-02T10:26:44.406Z,13.31
2019-05-02T10:29:14.037Z,12.95
2019-05-02T10:31:43.642Z,13.26
2019-05-02T10:34:17.621Z,15.40
2019-05-02T10:36:45.870Z,14.97
2019-05-02T10:39:15.978Z,16.20
2019-05-02T10:41:45.656Z,14.34
2019-05-02T10:44:15.431Z,12.84
2019-05-02T10:47:00.008Z,12.55
2019-05-02T10:49:32.087Z,13.92
2019-05-02T10:52:02.604Z,13.80
2019-05-02T10:54:33.811Z,12.71
2019-05-02T10:57:03.843Z,14.43
2019-05-02T10:59:33.454Z,14.74
2019-05-02T11:02:22.211Z,14.84
2019-05-02T11:04:59.184Z,15.78
2019-05-02T11:07:28.779Z,17.58
2019-05-02T11:10:03.124Z,18.54
2019-05-02T11:12:42.044Z,18.38
2019-05-02T11:15:26.817Z,18.94
2019-05-02T11:17:56.494Z,19.45
2019-05-02T11:20:26.274Z,19.20
2019-05-02T11:22:55.871Z,14.93
2019-05-02T11:25:25.479Z,12.16
2019-05-02T11:27:57.325Z,10.85
2019-05-02T11:30:26.756Z,12.71
2019-05-02T11:32:56.569Z,12.58
2019-05-02T11:35:26.185Z,11.93
2019-05-02T11:37:55.773Z,12.28
2019-05-02T11:40:25.649Z,11.38
2019-05-02T11:42:57.199Z,9.66
2019-05-02T11:45:26.607Z,8.50
2019-05-02T11:48:01.679Z,8.63
2019-05-02T11:50:31.954Z,10.99
2019-05-02T11:52:58.882Z,11.25
2019-05-02T11:55:29.121Z,13.67
2019-05-02T11:58:02.466Z,13.46
2019-05-02T12:00:32.212Z,12.19
2019-05-02T12:03:03.159Z,10.12
2019-05-02T12:05:35.828Z,9.67
2019-05-02T12:08:07.831Z,10.57
2019-05-02T12:10:37.195Z,12.11
2019-05-02T12:13:11.913Z,14.58
2019-05-02T12:15:41.578Z,13.00
2019-05-02T12:18:11.605Z,13.47
2019-05-02T12:20:42.552Z,14.19
2019-05-02T12:23:12.967Z,14.72
2019-05-02T12:25:42.770Z,14.47
2019-05-02T12:28:12.523Z,15.98
2019-05-02T12:30:42.194Z,15.83
2019-05-02T12:33:12.589Z,12.90
2019-05-02T12:35:43.247Z,11.21
2019-05-02T12:38:13.051Z,12.59
2019-05-02T12:40:42.819Z,13.76
2019-05-02T12:43:12.423Z,11.88
2019-05-02T12:45:42.328Z,10.78
2019-05-02T12:48:12.948Z,13.34
2019-05-02T12:50:42.735Z,15.40
2019-05-02T12:53:12.764Z,15.36
2019-05-02T12:55:42.436Z,13.20
2019-05-02T12:58:12.587Z,11.05
2019-05-02T13:00:43.227Z,10.88
2019-05-02T13:03:31.704Z,11.24
2019-05-02T13:06:03.062Z,13.09
2019-05-02T13:08:34.595Z,13.86
2019-05-02T13:11:08.561Z,14.20
2019-05-02T13:13:38.243Z,13.58
2019-05-02T13:16:08.102Z,11.95
2019-05-02T13:18:37.721Z,12.09
2019-05-02T13:21:15.156Z,11.74
2019-05-02T13:23:51.728Z,11.76
2019-05-02T13:26:26.572Z,13.21
2019-05-02T13:28:52.839Z,14.94
2019-05-02T13:31:26.988Z,16.63
2019-05-02T13:34:11.872Z,17.72
2019-05-02T13:36:44.104Z,16.60
2019-05-02T13:39:28.202Z,15.38
2019-05-02T13:41:58.173Z,16.85
2019-05-02T13:44:29.411Z,15.25
2019-05-02T13:46:59.015Z,12.93
2019-05-02T13:49:28.627Z,12.08
2019-05-02T13:51:58.225Z,12.00
2019-05-02T13:54:27.856Z,12.67
2019-05-02T13:56:57.438Z,13.87
2019-05-02T13:59:27.063Z,15.63
2019-05-02T14:01:56.677Z,14.43
2019-05-02T14:04:26.463Z,13.20
2019-05-02T14:06:56.053Z,13.36
2019-05-02T14:09:43.995Z,13.36
2019-05-02T14:12:15.253Z,13.36
2019-05-02T14:14:44.855Z,11.23
2019-05-02T14:17:14.457Z,11.28
2019-05-02T14:19:44.074Z,13.95
2019-05-02T14:22:13.669Z,14.12
2019-05-02T14:24:43.278Z,12.91
2019-05-02T14:27:17.109Z,12.08
2019-05-02T14:29:44.445Z,13.08
2019-05-02T14:32:23.379Z,15.69
2019-05-02T14:34:47.040Z,16.57
2019-05-02T14:37:16.636Z,14.64
2019-05-02T14:39:47.882Z,13.18
2019-05-02T14:42:22.260Z,13.98
2019-05-02T14:45:05.524Z,16.47
2019-05-02T14:47:22.390Z,19.10
2019-05-02T14:49:52.269Z,21.38
2019-05-02T14:52:22.199Z,23.06
2019-05-02T14:54:55.655Z,24.30
2019-05-02T14:57:27.167Z,25.31
2019-05-02T14:59:59.355Z,26.62
2019-05-02T15:02:39.322Z,27.69
2019-05-02T15:05:09.489Z,28.37
2019-05-02T15:07:39.186Z,29.36
2019-05-02T15:10:09.099Z,30.03
2019-05-02T15:12:38.707Z,30.15
2019-05-02T15:15:09.631Z,29.92
2019-05-02T15:17:39.243Z,29.46
2019-05-02T15:20:13.010Z,30.06
2019-05-02T15:22:42.814Z,31.25
2019-05-02T15:25:17.852Z,31.31
2019-05-02T15:27:49.911Z,30.88
2019-05-02T15:30:18.197Z,30.89
2019-05-02T15:32:55.386Z,31.37
2019-05-02T15:35:26.885Z,31.25
2019-05-02T15:37:56.685Z,31.01
2019-05-02T15:43:04.472Z,31.04
2019-05-02T15:45:31.938Z,30.39
2019-05-02T15:48:02.637Z,30.72
2019-05-02T15:50:32.838Z,31.39
2019-05-02T15:53:09.801Z,31.71
2019-05-02T15:55:39.339Z,31.92
2019-05-02T15:58:08.254Z,31.81
2019-05-02T16:00:45.223Z,31.46
2019-05-02T16:03:15.412Z,31.87
2019-05-02T16:05:45.328Z,32.22
2019-05-02T16:08:15.148Z,31.96
2019-05-02T16:10:44.753Z,31.24
2019-05-02T16:13:17.084Z,31.02
2019-05-02T16:15:45.872Z,29.69
2019-05-02T16:18:15.491Z,28.53
2019-05-02T16:21:04.219Z,28.02
2019-05-02T16:23:29.896Z,28.00
2019-05-02T16:25:56.972Z,27.79
2019-05-02T16:28:26.293Z,28.23
2019-05-02T16:30:57.550Z,28.42
2019-05-02T16:33:27.144Z,28.46
2019-05-02T16:35:56.736Z,28.81
2019-05-02T16:38:26.912Z,29.40
2019-05-02T16:41:04.004Z,29.97
2019-05-02T16:43:32.356Z,30.52
2019-05-02T16:46:02.119Z,30.81
2019-05-02T16:48:37.465Z,31.48
2019-05-02T16:51:08.215Z,31.97
2019-05-02T16:53:34.391Z,32.51
2019-05-02T16:56:07.011Z,32.44
2019-05-02T16:58:38.043Z,32.82
2019-05-02T17:01:07.052Z,33.02
2019-05-02T17:03:36.691Z,33.11
2019-05-02T17:06:06.273Z,33.36
2019-05-02T17:08:57.160Z,33.63
2019-05-02T17:11:27.860Z,33.90
2019-05-02T17:13:57.921Z,34.20
2019-05-02T17:16:27.514Z,34.35
2019-05-02T17:18:57.127Z,35.08
2019-05-02T17:21:31.214Z,36.42
2019-05-02T17:23:58.055Z,35.88
2019-05-02T17:26:28.216Z,35.44
2019-05-02T17:28:57.841Z,35.75
2019-05-02T17:31:27.443Z,36.09
2019-05-02T17:33:57.055Z,36.10
2019-05-02T17:36:28.641Z,36.49
2019-05-02T17:38:59.274Z,36.74
2019-05-02T17:41:31.700Z,36.67
2019-05-02T17:44:03.056Z,36.75
2019-05-02T17:46:32.396Z,36.93
2019-05-02T17:49:02.533Z,37.40
2019-05-02T17:51:37.847Z,37.39
2019-05-02T17:54:08.519Z,37.65
2019-05-02T17:56:38.120Z,38.59
2019-05-02T17:59:07.738Z,37.68
2019-05-02T18:01:38.987Z,37.71
2019-05-02T18:04:12.688Z,38.00
2019-05-02T18:06:41.686Z,38.20
2019-05-02T18:09:12.224Z,37.94
2019-05-02T18:11:42.424Z,38.15
2019-05-02T18:14:19.633Z,38.17
2019-05-02T18:16:47.134Z,38.43
2019-05-02T18:19:16.015Z,38.50
2019-05-02T18:21:46.012Z,38.78
2019-05-02T18:24:15.699Z,39.02
2019-05-02T18:26:45.315Z,39.21
2019-05-02T18:29:15.548Z,39.46
2019-05-02T18:31:47.638Z,39.83
2019-05-02T18:34:21.230Z,39.92
2019-05-02T18:36:48.707Z,40.15
2019-05-02T18:39:18.311Z,40.31
2019-05-02T18:41:47.942Z,40.60
2019-05-02T18:44:19.251Z,40.63
2019-05-02T18:46:48.874Z,41.04
2019-05-02T18:49:21.921Z,41.33
2019-05-02T18:51:53.874Z,41.42
2019-05-02T18:54:21.736Z,41.75
2019-05-02T18:56:55.343Z,42.29
2019-05-02T18:59:27.007Z,42.42
2019-05-02T19:01:56.144Z,42.66
2019-05-02T19:04:35.254Z,42.83
2019-05-02T19:06:57.313Z,42.83
2019-05-02T19:09:30.145Z,42.93
2019-05-02T19:12:05.304Z,42.97
2019-05-02T19:14:29.596Z,43.01
2019-05-02T19:17:03.592Z,43.37
2019-05-02T19:19:35.152Z,43.49
2019-05-02T19:22:02.659Z,43.82
2019-05-02T19:24:36.453Z,43.85
2019-05-02T19:27:04.815Z,43.89
2019-05-02T19:29:34.421Z,44.13
2019-05-02T19:32:05.708Z,44.35
2019-05-02T19:34:35.297Z,44.40
2019-05-02T19:37:04.913Z,44.54
2019-05-02T19:39:39.015Z,44.66
2019-05-02T19:42:07.628Z,45.07
2019-05-02T19:44:37.239Z,45.25
2019-05-02T19:47:08.288Z,45.44
2019-05-02T19:49:38.156Z,45.66
2019-05-02T19:52:07.777Z,45.88
2019-05-02T19:54:39.294Z,46.04
2019-05-02T19:57:08.732Z,46.10
2019-05-02T19:59:38.324Z,46.25
2019-05-02T20:02:08.106Z,46.45
2019-05-02T20:04:42.577Z,46.59
2019-05-02T20:07:09.048Z,46.83
2019-05-02T20:09:45.667Z,47.15
2019-05-02T20:12:15.136Z,47.54
2019-05-02T20:14:43.578Z,47.88
2019-05-02T20:17:20.138Z,48.03
2019-05-02T20:19:48.696Z,48.79
2019-05-02T20:22:18.390Z,49.74
2019-05-02T20:24:55.414Z,51.14
2019-05-02T20:27:27.750Z,51.78
2019-05-02T20:29:56.058Z,52.42
2019-05-02T20:32:25.664Z,53.93
2019-05-02T20:34:55.279Z,54.17
2019-05-02T20:37:25.273Z,54.57
2019-05-02T20:39:54.874Z,55.08
2019-05-02T20:42:24.487Z,55.65
2019-05-02T20:44:54.094Z,55.99
2019-05-02T20:47:26.811Z,56.32
2019-05-02T20:49:56.480Z,56.06
2019-05-02T20:52:26.330Z,56.12
2019-05-02T20:54:56.005Z,56.24
2019-05-02T20:57:25.632Z,56.09
2019-05-02T20:59:55.228Z,56.06
2019-05-02T21:02:24.872Z,56.22
2019-05-02T21:04:54.470Z,56.46
2019-05-02T21:07:37.467Z,56.62
2019-05-02T21:10:10.175Z,56.79
2019-05-02T21:12:41.853Z,56.77
2019-05-02T21:15:12.460Z,56.58
2019-05-02T21:17:42.324Z,56.36
2019-05-02T21:20:12.582Z,56.21
2019-05-02T21:22:42.335Z,56.17
2019-05-02T21:25:13.329Z,56.10
2019-05-02T21:27:42.946Z,55.99
2019-05-02T21:30:14.755Z,55.97
2019-05-02T21:32:44.379Z,55.99
2019-05-02T21:35:14.047Z,55.87
2019-05-02T21:37:43.662Z,55.59
2019-05-02T21:40:13.597Z,55.60
2019-05-02T21:42:43.968Z,55.82
2019-05-02T21:45:14.071Z,55.84
2019-05-02T21:47:43.719Z,55.76
2019-05-02T21:50:15.861Z,55.36
2019-05-02T21:52:47.113Z,54.95
2019-05-02T21:55:21.740Z,54.70
2019-05-02T21:57:52.174Z,54.51
2019-05-02T22:00:44.107Z,54.55
2019-05-02T22:03:14.155Z,54.81
2019-05-02T22:05:44.808Z,55.28
2019-05-02T22:08:14.432Z,55.41
2019-05-02T22:10:44.026Z,54.95
2019-05-02T22:13:13.627Z,54.79
2019-05-02T22:15:43.248Z,54.80
2019-05-02T22:18:12.860Z,54.82
2019-05-02T22:20:42.836Z,54.58
2019-05-02T22:23:12.575Z,54.31
2019-05-02T22:25:42.182Z,53.67
2019-05-02T22:28:12.572Z,53.35
2019-05-02T22:30:42.889Z,53.31
2019-05-02T22:33:12.646Z,53.28
2019-05-02T22:35:43.395Z,52.96
2019-05-02T22:38:17.653Z,52.85
2019-05-02T22:40:48.913Z,52.43
2019-05-02T22:43:18.625Z,52.41
2019-05-02T22:45:48.292Z,52.50
2019-05-02T22:48:17.894Z,52.76
2019-05-02T22:50:48.182Z,52.83
2019-05-02T22:53:17.780Z,52.83
2019-05-02T22:55:47.391Z,52.54
2019-05-02T22:58:16.993Z,52.42
2019-05-02T23:00:46.597Z,52.16
2019-05-02T23:03:16.199Z,51.90
2019-05-02T23:05:45.818Z,51.84
2019-05-02T23:08:15.423Z,51.87
2019-05-02T23:10:45.033Z,51.73
2019-05-02T23:13:14.631Z,51.70
2019-05-02T23:15:44.266Z,51.81
2019-05-02T23:18:13.875Z,52.00
2019-05-02T23:20:43.487Z,52.21
2019-05-02T23:23:13.120Z,52.06
2019-05-02T23:25:51.947Z,51.84
2019-05-02T23:28:24.338Z,51.67
2019-05-02T23:30:53.994Z,51.61
2019-05-02T23:33:25.239Z,51.61
2019-05-02T23:35:54.848Z,51.79
2019-05-02T23:38:24.439Z,51.92
2019-05-02T23:40:54.058Z,51.87
2019-05-02T23:43:23.666Z,51.94
2019-05-02T23:45:53.290Z,51.60
2019-05-02T23:48:22.888Z,51.79
2019-05-02T23:50:52.502Z,51.65
2019-05-02T23:53:22.172Z,51.70
2019-05-02T23:55:51.797Z,51.58
2019-05-02T23:58:22.628Z,51.64
